Time;durP1;ratioP1;P1;durP2;ratioP2;P2;SDS_P1;SDS_P2;PMS_P1;PMS_P2;Temp;Humidity;BMP_temperature;BMP_pressure;BME280_temperature;BME280_humidity;BME280_pressure;Samples;Min_cycle;Max_cycle;Signal;HPM_P1;HPM_P2
2023/10/02 00:03:44;;;;;;;;;;;;;;;27.86;28.96;100983.31;5071333;28;1377;-39
2023/10/02 00:06:10;;;;;;;;;;;;;;;27.95;28.57;100984.06;5077123;28;1902;-37
2023/10/02 00:08:42;;;;;;;;;;;;;;;27.91;29.24;100982.75;5076678;28;1047;-38
2023/10/02 00:11:35;;;;;;;;;;;;;;;27.86;28.34;100977.91;5076198;28;1138;-36
2023/10/02 00:14:18;;;;;;;;;;;;;;;27.71;28.82;100969.75;5075952;28;1401;-40
2023/10/02 00:16:42;;;;;;;;;;;;;;;27.88;28.49;100986.66;5076310;28;1428;-39
2023/10/02 00:19:18;;;;;;;;;;;;;;;27.75;28.95;100996.22;5076441;28;1118;-37
2023/10/02 00:21:46;;;;;;;;;;;;;;;27.86;28.45;100981.44;5076487;28;1042;-37
2023/10/02 00:24:13;;;;;;;;;;;;;;;27.90;28.64;101010.78;5069584;28;1906;-37
2023/10/02 00:26:38;;;;;;;;;;;;;;;27.80;28.69;101005.63;5076233;28;1077;-36
2023/10/02 00:29:06;;;;;;;;;;;;;;;27.94;28.64;101007.56;5076156;28;1121;-37
2023/10/02 00:31:36;;;;;;;;;;;;;;;27.96;28.71;101010.91;5076094;28;1137;-35
2023/10/02 00:34:02;;;;;;;;;;;;;;;27.91;28.47;101007.09;5108146;28;1077;-36
2023/10/02 00:36:29;;;;;;;;;;;;;;;27.96;28.50;101012.78;5074843;28;1137;-38
2023/10/02 00:39:24;;;;;;;;;;;;;;;27.86;28.32;101021.16;5108624;28;1109;-35
2023/10/02 00:42:10;;;;;;;;;;;;;;;27.88;28.52;101016.38;5063326;28;1455;-39
2023/10/02 00:44:51;;;;;;;;;;;;;;;27.93;28.64;101015.84;5076015;28;1966;-37
2023/10/02 00:47:35;;;;;;;;;;;;;;;27.77;28.76;101016.81;5074872;28;1299;-39
2023/10/02 00:50:24;;;;;;;;;;;;;;;27.92;28.59;101020.41;5091719;28;1186;-40
2023/10/02 00:52:54;;;;;;;;;;;;;;;27.82;28.48;101017.13;5075468;28;1867;-38
2023/10/02 00:55:24;;;;;;;;;;;;;;;27.80;28.55;101019.16;5070317;28;1134;-39
2023/10/02 00:57:56;;;;;;;;;;;;;;;27.83;28.56;101016.94;5075369;28;1147;-37
2023/10/02 01:00:30;;;;;;;;;;;;;;;27.86;28.68;101013.88;5070404;28;1384;-38
2023/10/02 01:03:01;;;;;;;;;;;;;;;27.99;28.40;101018.66;5082994;28;1250;-35
2023/10/02 01:05:30;;;;;;;;;;;;;;;28.01;28.27;101023.06;5074686;28;1914;-38
2023/10/02 01:07:59;;;;;;;;;;;;;;;28.01;28.10;101029.28;5079982;28;1074;-35
2023/10/02 01:10:29;;;;;;;;;;;;;;;27.93;28.66;101029.34;5078595;28;1123;-36
2023/10/02 01:13:01;;;;;;;;;;;;;;;27.87;28.53;101020.97;5078485;28;1079;-41
2023/10/02 01:15:27;;;;;;;;;;;;;;;27.90;28.87;101038.69;5077864;28;1125;-39
2023/10/02 01:17:53;;;;;;;;;;;;;;;28.01;28.54;101041.97;5079811;28;1079;-37
2023/10/02 01:20:32;;;;;;;;;;;;;;;27.96;28.65;101039.81;5080289;28;1034;-37
2023/10/02 01:23:11;;;;;;;;;;;;;;;27.86;28.88;101038.19;5078661;28;1144;-40
2023/10/02 01:25:40;;;;;;;;;;;;;;;27.84;28.88;101040.22;5066187;28;1921;-39
2023/10/02 01:28:06;;;;;;;;;;;;;;;27.75;29.07;101050.28;5112098;28;1224;-37
2023/10/02 01:30:31;;;;;;;;;;;;;;;27.83;28.74;101052.06;5078622;28;1079;-39
2023/10/02 01:33:11;;;;;;;;;;;;;;;27.85;28.67;101054.59;5079886;28;1085;-40
2023/10/02 01:35:38;;;;;;;;;;;;;;;27.89;28.54;101057.78;5079345;28;1111;-38
2023/10/02 01:38:12;;;;;;;;;;;;;;;27.82;28.74;101060.38;5079250;28;1065;-39
2023/10/02 01:40:41;;;;;;;;;;;;;;;27.56;28.84;101053.44;5072091;28;1343;-40
2023/10/02 01:43:13;;;;;;;;;;;;;;;27.66;28.54;101055.91;5077822;28;1087;-40
2023/10/02 01:45:42;;;;;;;;;;;;;;;27.74;28.64;101062.09;5077844;28;1913;-40
2023/10/02 01:48:36;;;;;;;;;;;;;;;27.80;28.35;101060.56;5066089;28;1408;-39
2023/10/02 01:51:20;;;;;;;;;;;;;;;27.78;28.63;101067.19;5078951;28;1234;-40
2023/10/02 01:53:49;;;;;;;;;;;;;;;27.70;28.65;101068.06;5078963;28;1070;-37
2023/10/02 01:56:15;;;;;;;;;;;;;;;27.83;28.60;101067.44;5065849;28;1136;-39
2023/10/02 01:58:44;;;;;;;;;;;;;;;27.84;28.32;101064.56;5079075;28;1189;-39
2023/10/02 02:01:10;;;;;;;;;;;;;;;27.90;28.42;101072.97;5077429;28;1199;-37
2023/10/02 02:03:51;;;;;;;;;;;;;;;27.86;28.66;101081.44;5078452;28;1046;-39
2023/10/02 02:06:21;;;;;;;;;;;;;;;27.74;28.60;101085.59;5078841;28;1982;-38
2023/10/02 02:08:49;;;;;;;;;;;;;;;27.74;28.55;101093.72;5077718;28;1093;-36
2023/10/02 02:11:20;;;;;;;;;;;;;;;27.84;28.54;101104.28;5077486;28;1113;-38
2023/10/02 02:13:47;;;;;;;;;;;;;;;27.72;28.79;101099.31;5077961;28;1318;-39
2023/10/02 02:16:22;;;;;;;;;;;;;;;27.78;28.79;101096.91;5074222;28;1083;-40
2023/10/02 02:18:53;;;;;;;;;;;;;;;27.70;28.84;101103.19;5078505;28;1090;-40
2023/10/02 02:21:21;;;;;;;;;;;;;;;27.76;28.47;101102.47;5077072;28;1102;-39
2023/10/02 02:23:48;;;;;;;;;;;;;;;27.71;29.04;101108.41;5078595;28;1038;-34
2023/10/02 02:26:21;;;;;;;;;;;;;;;27.72;28.71;101107.41;5078366;28;1909;-37
2023/10/02 02:28:51;;;;;;;;;;;;;;;27.77;28.67;101109.56;5077064;28;1359;-39
2023/10/02 02:31:32;;;;;;;;;;;;;;;27.80;28.29;101119.16;5078476;28;1261;-38
2023/10/02 02:34:01;;;;;;;;;;;;;;;27.73;28.58;101122.59;5079174;28;1241;-39
2023/10/02 02:36:27;;;;;;;;;;;;;;;27.77;28.41;101120.38;5076564;28;1050;-39
2023/10/02 02:39:08;;;;;;;;;;;;;;;27.64;28.45;101123.66;5078002;28;1125;-36
2023/10/02 02:41:41;;;;;;;;;;;;;;;27.65;28.92;101128.03;5111435;27;1235;-36
2023/10/02 02:44:29;;;;;;;;;;;;;;;27.66;28.59;101132.41;5077952;28;1905;-35
2023/10/02 02:46:53;;;;;;;;;;;;;;;27.68;28.82;101133.09;5063940;28;1455;-38
2023/10/02 02:49:19;;;;;;;;;;;;;;;27.68;28.86;101132.22;5106731;27;1201;-35
2023/10/02 02:51:48;;;;;;;;;;;;;;;27.65;28.62;101146.94;5078010;28;1139;-37
2023/10/02 02:54:14;;;;;;;;;;;;;;;27.63;28.42;101143.56;5077875;28;1046;-35
2023/10/02 02:56:40;;;;;;;;;;;;;;;27.58;28.73;101148.66;5078506;28;1122;-38
2023/10/02 02:59:08;;;;;;;;;;;;;;;27.70;28.44;101155.38;5077885;28;1146;-34
2023/10/02 03:01:33;;;;;;;;;;;;;;;27.64;28.61;101161.47;5085526;28;1341;-39
2023/10/02 03:04:11;;;;;;;;;;;;;;;27.70;28.37;101154.53;5118464;27;1517;-40
2023/10/02 03:06:36;;;;;;;;;;;;;;;26.59;28.65;101162.22;5082192;28;1014;-36
2023/10/02 03:09:05;;;;;;;;;;;;;;;24.54;31.15;101158.34;5077126;28;1062;-36
2023/10/02 03:11:32;;;;;;;;;;;;;;;24.67;31.09;101152.56;5077814;28;1042;-40
2023/10/02 03:14:12;;;;;;;;;;;;;;;25.21;31.22;101166.88;5076640;28;1384;-37
2023/10/02 03:16:38;;;;;;;;;;;;;;;24.75;31.42;101160.69;5076738;28;1082;-41
2023/10/02 03:19:05;;;;;;;;;;;;;;;25.17;30.38;101167.19;5092856;28;1114;-41
2023/10/02 03:21:34;;;;;;;;;;;;;;;25.39;29.76;101164.13;5077404;28;1111;-41
2023/10/02 03:24:01;;;;;;;;;;;;;;;25.24;29.91;101162.00;5077073;28;957;-41
2023/10/02 03:29:04;;;;;;;;;;;;;;;25.22;30.01;101177.50;5075773;28;840;-39
2023/10/02 03:31:36;;;;;;;;;;;;;;;25.27;29.80;101183.25;5079262;28;1110;-41
2023/10/02 03:34:24;;;;;;;;;;;;;;;25.10;30.09;101182.31;5077054;28;1191;-41
2023/10/02 03:36:48;;;;;;;;;;;;;;;25.25;29.79;101181.72;5070615;28;2688;-39
2023/10/02 03:39:23;;;;;;;;;;;;;;;25.24;29.76;101186.25;5108861;28;1158;-39
2023/10/02 03:41:55;;;;;;;;;;;;;;;25.17;29.89;101194.09;5064998;28;1071;-42
2023/10/02 03:44:22;;;;;;;;;;;;;;;25.13;29.76;101200.81;5076274;28;1910;-40
2023/10/02 03:46:48;;;;;;;;;;;;;;;25.22;29.62;101207.13;5076036;28;1054;-41
2023/10/02 03:49:17;;;;;;;;;;;;;;;25.12;29.65;101201.84;5076658;28;1069;-42
2023/10/02 03:51:44;;;;;;;;;;;;;;;25.04;29.96;101213.38;5076494;28;1027;-40
2023/10/02 03:54:21;;;;;;;;;;;;;;;25.16;29.57;101219.34;5076739;28;1055;-40
2023/10/02 03:56:50;;;;;;;;;;;;;;;24.71;30.76;101213.09;5076263;28;991;-33
2023/10/02 03:59:21;;;;;;;;;;;;;;;24.84;30.78;101212.69;5076875;28;1042;-35
2023/10/02 04:01:47;;;;;;;;;;;;;;;25.03;30.01;101219.78;5076197;28;1086;-39
2023/10/02 04:06:42;;;;;;;;;;;;;;;24.76;28.82;101221.56;5079743;28;2410;-36
2023/10/02 04:11:43;;;;;;;;;;;;;;;25.56;29.71;101245.81;5076499;28;1066;-38
2023/10/02 04:14:17;;;;;;;;;;;;;;;26.04;29.00;101250.78;5075935;28;1101;-34
2023/10/02 04:16:46;;;;;;;;;;;;;;;26.36;29.14;101240.28;5076002;28;1022;-38
2023/10/02 04:19:25;;;;;;;;;;;;;;;26.47;29.46;101242.66;5076016;28;1213;-38
2023/10/02 04:21:56;;;;;;;;;;;;;;;26.67;29.20;101246.88;5076209;28;1111;-41
2023/10/02 04:24:24;;;;;;;;;;;;;;;26.59;29.24;101245.03;5076244;28;1985;-37
2023/10/02 04:27:14;;;;;;;;;;;;;;;26.45;30.17;101252.78;5075838;28;1085;-38
2023/10/02 04:29:42;;;;;;;;;;;;;;;26.53;30.29;101257.31;5075798;28;921;-35
2023/10/02 04:32:18;;;;;;;;;;;;;;;26.51;30.23;101249.41;5075737;28;1000;-41
2023/10/02 04:34:50;;;;;;;;;;;;;;;26.65;30.57;101257.84;5075324;28;1023;-39
2023/10/02 04:37:22;;;;;;;;;;;;;;;26.42;30.98;101272.00;5082248;28;2177;-39
2023/10/02 04:42:21;;;;;;;;;;;;;;;26.55;31.81;101279.59;5075454;28;1099;-41
2023/10/02 04:44:48;;;;;;;;;;;;;;;26.68;31.30;101279.09;5075720;28;1982;-42
2023/10/02 04:47:17;;;;;;;;;;;;;;;26.78;31.24;101285.19;5075496;28;1093;-42
2023/10/02 04:52:55;;;;;;;;;;;;;;;26.49;31.65;101275.69;5060945;28;1128;-38
2023/10/02 04:55:24;;;;;;;;;;;;;;;26.59;32.24;101258.53;5086244;28;1154;-42
2023/10/02 04:57:51;;;;;;;;;;;;;;;26.56;32.58;101261.56;5086229;28;1185;-38
2023/10/02 05:00:27;;;;;;;;;;;;;;;26.47;32.59;101261.56;5085930;28;1328;-42
2023/10/02 05:03:09;;;;;;;;;;;;;;;26.68;32.45;101254.81;5084387;28;991;-41
2023/10/02 05:05:47;;;;;;;;;;;;;;;26.85;32.12;101265.59;5073620;28;1925;-42
2023/10/02 05:08:20;;;;;;;;;;;;;;;26.84;32.55;101269.34;5063260;28;1094;-42
2023/10/02 05:10:52;;;;;;;;;;;;;;;26.78;32.44;101282.50;5075381;28;1027;-41
2023/10/02 05:13:44;;;;;;;;;;;;;;;26.53;32.46;101287.00;5081568;28;1015;-42
2023/10/02 05:16:07;;;;;;;;;;;;;;;26.38;32.91;101276.00;5075987;28;1443;-42
2023/10/02 05:18:33;;;;;;;;;;;;;;;26.48;32.85;101286.66;5075607;28;991;-41
2023/10/02 05:21:01;;;;;;;;;;;;;;;26.73;32.84;101292.09;5075309;28;1166;-42
2023/10/02 05:23:30;;;;;;;;;;;;;;;26.71;32.52;101292.25;5074811;28;1117;-41
2023/10/02 05:26:00;;;;;;;;;;;;;;;26.93;32.44;101302.56;5068969;28;1979;-41
2023/10/02 05:28:38;;;;;;;;;;;;;;;27.02;33.02;101305.16;5073915;28;991;-42
2023/10/02 05:31:07;;;;;;;;;;;;;;;27.01;32.97;101297.16;5062933;28;992;-42
2023/10/02 05:33:37;;;;;;;;;;;;;;;27.09;32.47;101299.06;5074818;28;1159;-41
2023/10/02 05:36:06;;;;;;;;;;;;;;;26.93;32.82;101298.00;5083054;28;1868;-39
2023/10/02 05:38:33;;;;;;;;;;;;;;;26.95;32.58;101309.50;5075295;28;1098;-41
2023/10/02 05:40:59;;;;;;;;;;;;;;;27.12;32.34;101310.38;5082670;28;1297;-38
2023/10/02 05:43:25;;;;;;;;;;;;;;;26.74;33.36;101307.28;5075341;28;1089;-36
2023/10/02 05:45:52;;;;;;;;;;;;;;;26.80;34.29;101313.84;5074616;28;1969;-34
2023/10/02 05:50:52;;;;;;;;;;;;;;;26.95;33.66;101317.59;5075036;28;1144;-41
2023/10/02 05:53:32;;;;;;;;;;;;;;;27.09;32.86;101326.06;5077364;28;1050;-42
2023/10/02 05:56:05;;;;;;;;;;;;;;;27.17;32.57;101326.06;5078840;28;1206;-41
2023/10/02 05:58:31;;;;;;;;;;;;;;;27.28;33.22;101326.75;5078515;28;1112;-42
2023/10/02 06:01:01;;;;;;;;;;;;;;;27.34;33.60;101326.06;5086543;28;1051;-42
2023/10/02 06:03:28;;;;;;;;;;;;;;;27.32;33.54;101339.72;5083675;28;1042;-42
2023/10/02 06:06:15;;;;;;;;;;;;;;;27.30;33.91;101338.19;5083837;28;1914;-38
2023/10/02 06:08:56;;;;;;;;;;;;;;;27.21;33.54;101340.91;5069006;28;1066;-38
2023/10/02 06:11:34;;;;;;;;;;;;;;;27.29;33.18;101344.63;5080418;28;1046;-40
2023/10/02 06:14:09;;;;;;;;;;;;;;;27.21;33.35;101346.31;5078689;28;1098;-41
2023/10/02 06:16:35;;;;;;;;;;;;;;;27.13;33.34;101349.84;5081825;28;1002;-41
2023/10/02 06:19:01;;;;;;;;;;;;;;;27.25;32.44;101357.63;5078193;28;1065;-43
2023/10/02 06:21:40;;;;;;;;;;;;;;;26.50;33.44;101252.25;5067747;28;1520;-43
2023/10/02 06:24:05;;;;;;;;;;;;;;;27.03;34.20;101370.78;5074976;28;1434;-40
2023/10/02 06:26:46;;;;;;;;;;;;;;;27.38;32.84;101370.59;5076925;28;1916;-42
2023/10/02 06:29:20;;;;;;;;;;;;;;;27.25;33.47;101376.53;5077358;28;1089;-42
2023/10/02 06:31:51;;;;;;;;;;;;;;;27.20;33.66;101377.03;5074586;28;1318;-41
2023/10/02 06:34:19;;;;;;;;;;;;;;;27.20;33.62;101379.72;5069674;28;1014;-41
2023/10/02 06:36:48;;;;;;;;;;;;;;;27.08;33.94;101383.75;5070844;28;1788;-41
2023/10/02 06:39:21;;;;;;;;;;;;;;;27.01;34.29;101387.13;5077471;28;1091;-42
2023/10/02 06:41:47;;;;;;;;;;;;;;;26.87;34.32;101388.63;5077271;28;1069;-41
2023/10/02 06:44:15;;;;;;;;;;;;;;;27.02;34.30;101385.28;5068524;28;1909;-41
2023/10/02 06:46:53;;;;;;;;;;;;;;;27.11;34.19;101396.97;5085812;28;1293;-40
2023/10/02 06:49:20;;;;;;;;;;;;;;;26.97;35.11;101395.72;5090055;28;1281;-41
2023/10/02 06:51:50;;;;;;;;;;;;;;;27.09;34.68;101391.69;5085021;28;1288;-41
2023/10/02 06:54:16;;;;;;;;;;;;;;;27.15;34.22;101392.91;5080762;28;1233;-43
2023/10/02 06:56:43;;;;;;;;;;;;;;;27.22;33.58;101393.94;5081850;28;1264;-42
2023/10/02 06:59:09;;;;;;;;;;;;;;;27.23;33.84;101401.00;5061912;28;1051;-39
2023/10/02 07:01:35;;;;;;;;;;;;;;;27.22;33.73;101387.66;5069628;28;1254;-41
2023/10/02 07:04:09;;;;;;;;;;;;;;;27.27;33.40;101401.50;5077431;28;777;-41
2023/10/02 07:06:38;;;;;;;;;;;;;;;27.20;34.22;101401.34;5085963;28;2037;-41
2023/10/02 07:09:10;;;;;;;;;;;;;;;27.28;33.74;101402.38;5084449;28;1217;-41
2023/10/02 07:11:36;;;;;;;;;;;;;;;27.16;33.94;101402.69;5076919;27;1126;-43
2023/10/02 07:14:04;;;;;;;;;;;;;;;27.13;33.86;101401.16;5087900;28;1280;-39
2023/10/02 07:16:32;;;;;;;;;;;;;;;27.19;33.51;101405.06;5076415;28;988;-41
2023/10/02 07:18:59;;;;;;;;;;;;;;;27.15;33.71;101411.81;5076810;28;925;-42
2023/10/02 07:21:27;;;;;;;;;;;;;;;27.16;33.70;101413.47;5076872;28;1150;-40
2023/10/02 07:23:53;;;;;;;;;;;;;;;27.24;33.79;101413.47;5076936;28;1054;-41
2023/10/02 07:26:19;;;;;;;;;;;;;;;27.18;33.60;101413.31;5076355;28;1929;-41
2023/10/02 07:28:51;;;;;;;;;;;;;;;27.18;34.03;101416.88;5076079;28;1004;-42
2023/10/02 07:31:22;;;;;;;;;;;;;;;27.25;33.87;101422.44;5076203;28;929;-41
2023/10/02 07:33:47;;;;;;;;;;;;;;;27.22;34.07;101428.19;5076326;28;1115;-41
2023/10/02 07:36:16;;;;;;;;;;;;;;;27.19;33.25;101428.53;5079803;28;1839;-38
2023/10/02 07:38:47;;;;;;;;;;;;;;;27.03;34.25;101424.78;5075273;28;1343;-41
2023/10/02 07:41:16;;;;;;;;;;;;;;;27.14;34.05;101421.75;5082719;28;1181;-40
2023/10/02 07:43:42;;;;;;;;;;;;;;;26.90;33.98;101423.38;5064797;28;1363;-40
2023/10/02 07:46:18;;;;;;;;;;;;;;;27.13;34.36;101432.72;5076681;28;1978;-41
2023/10/02 07:48:57;;;;;;;;;;;;;;;27.20;34.51;101432.91;5066408;28;1034;-42
2023/10/02 07:51:30;;;;;;;;;;;;;;;27.07;34.72;101425.28;5075010;28;1031;-37
2023/10/02 07:54:04;;;;;;;;;;;;;;;27.23;34.30;101436.13;5078492;28;1114;-38
2023/10/02 07:56:32;;;;;;;;;;;;;;;27.16;34.94;101436.97;5083191;28;1089;-36
2023/10/02 07:59:01;;;;;;;;;;;;;;;27.18;34.68;101438.47;5075518;28;1080;-39
2023/10/02 08:01:29;;;;;;;;;;;;;;;27.12;35.14;101445.41;5072095;28;1113;-37
2023/10/02 08:03:58;;;;;;;;;;;;;;;27.29;34.93;101445.41;5080611;28;1031;-39
2023/10/02 08:06:33;;;;;;;;;;;;;;;27.30;33.99;101444.41;5077622;28;1982;-36
2023/10/02 08:11:49;;;;;;;;;;;;;;;27.18;34.67;101440.31;5074699;28;1123;-39
2023/10/02 08:15:00;;;;;;;;;;;;;;;27.14;34.72;101454.16;5075480;28;1071;-35
2023/10/02 08:17:08;;;;;;;;;;;;;;;27.20;35.17;101447.25;5074874;28;1420;-36
2023/10/02 08:19:36;;;;;;;;;;;;;;;27.17;35.39;101441.34;5075155;28;902;-36
2023/10/02 08:22:05;;;;;;;;;;;;;;;27.29;34.93;101442.72;5075962;28;1026;-37
2023/10/02 08:24:36;;;;;;;;;;;;;;;27.25;34.94;101436.81;5075417;28;1933;-37
2023/10/02 08:27:04;;;;;;;;;;;;;;;27.20;35.22;101432.91;5075790;28;1010;-36
2023/10/02 08:29:29;;;;;;;;;;;;;;;27.21;34.82;101424.63;5076073;28;1053;-35
2023/10/02 08:31:55;;;;;;;;;;;;;;;27.16;34.72;101426.16;5074296;28;1071;-35
2023/10/02 08:34:24;;;;;;;;;;;;;;;27.16;34.93;101421.56;5078613;28;1304;-36
2023/10/02 08:37:05;;;;;;;;;;;;;;;27.26;34.78;101424.13;5094297;28;1832;-36
2023/10/02 08:39:36;;;;;;;;;;;;;;;27.20;34.47;101424.78;5076045;28;1026;-36
2023/10/02 08:42:09;;;;;;;;;;;;;;;27.20;34.79;101431.06;5075699;28;1055;-36
2023/10/02 08:44:38;;;;;;;;;;;;;;;27.15;35.23;101428.00;5075631;28;1975;-36
2023/10/02 08:47:04;;;;;;;;;;;;;;;27.15;35.38;101422.59;5075871;28;1031;-35
2023/10/02 08:49:30;;;;;;;;;;;;;;;27.21;34.74;101423.81;5075919;28;1027;-36
2023/10/02 08:51:55;;;;;;;;;;;;;;;27.13;34.53;101422.78;5075500;28;1113;-35
2023/10/02 08:54:27;;;;;;;;;;;;;;;27.06;34.10;101423.63;5070310;28;1174;-36
2023/10/02 08:57:06;;;;;;;;;;;;;;;27.16;34.62;101429.69;5082614;28;1054;-36
2023/10/02 08:59:38;;;;;;;;;;;;;;;27.19;34.73;101423.13;5075471;28;1166;-37
2023/10/02 09:02:13;;;;;;;;;;;;;;;27.11;35.06;101418.56;5075657;28;1198;-37
2023/10/02 09:04:55;;;;;;;;;;;;;;;27.17;34.99;101420.59;5075679;28;1902;-36
2023/10/02 09:07:22;;;;;;;;;;;;;;;27.13;35.00;101413.81;5075559;28;2311;-36
2023/10/02 09:09:54;;;;;;;;;;;;;;;27.18;34.87;101416.88;5075725;28;1027;-35
2023/10/02 09:12:20;;;;;;;;;;;;;;;27.35;34.55;101423.13;5075257;28;1022;-38
2023/10/02 09:14:46;;;;;;;;;;;;;;;27.21;34.98;101421.94;5075370;28;1054;-36
2023/10/02 09:19:49;;;;;;;;;;;;;;;26.48;34.56;101426.94;5085630;28;967;-45
2023/10/02 09:22:15;;;;;;;;;;;;;;;25.95;35.09;101427.81;5086659;28;1126;-45
2023/10/02 09:24:41;;;;;;;;;;;;;;;25.64;35.30;101422.91;5073881;28;1937;-44
2023/10/02 09:30:19;;;;;;;;;;;;;;;24.38;36.62;101434.16;5066794;28;1319;-44
2023/10/02 09:32:51;;;;;;;;;;;;;;;24.93;36.78;101432.47;5078728;28;1054;-44
2023/10/02 09:38:02;;;;;;;;;;;;;;;26.75;33.81;101420.47;5089631;28;1343;-43
2023/10/02 09:40:54;;;;;;;;;;;;;;;27.16;33.40;101424.28;5081771;28;999;-43
2023/10/02 09:43:23;;;;;;;;;;;;;;;27.01;33.08;101421.34;5074475;28;995;-43
2023/10/02 09:45:55;;;;;;;;;;;;;;;27.25;33.33;101427.84;5078408;28;1901;-43
2023/10/02 09:51:27;;;;;;;;;;;;;;;27.42;33.40;101417.91;5076823;28;1015;-45
2023/10/02 09:54:05;;;;;;;;;;;;;;;27.56;33.77;101418.25;5077541;28;1014;-44
2023/10/02 09:56:37;;;;;;;;;;;;;;;27.49;34.14;101418.06;5077190;28;885;-44
2023/10/02 09:59:19;;;;;;;;;;;;;;;27.55;34.63;101411.97;5078093;28;1173;-44
2023/10/02 10:02:07;;;;;;;;;;;;;;;27.60;34.58;101409.63;5078851;28;975;-44
2023/10/02 10:04:59;;;;;;;;;;;;;;;27.61;34.46;101405.88;5074474;28;1909;-45
2023/10/02 10:07:38;;;;;;;;;;;;;;;27.77;34.11;101406.91;5084286;28;2082;-46
2023/10/02 10:10:27;;;;;;;;;;;;;;;27.78;33.97;101407.78;5065751;28;979;-46
2023/10/02 10:13:09;;;;;;;;;;;;;;;27.83;34.37;101410.78;5089191;28;1225;-45
2023/10/02 10:15:37;;;;;;;;;;;;;;;28.06;34.20;101402.78;5077016;28;992;-45
2023/10/02 10:18:12;;;;;;;;;;;;;;;28.03;33.66;101400.44;5077990;28;1010;-44
2023/10/02 10:20:37;;;;;;;;;;;;;;;27.98;33.84;101403.66;5077921;28;908;-43
2023/10/02 10:23:18;;;;;;;;;;;;;;;27.97;34.58;101396.56;5077543;28;1261;-43
2023/10/02 10:25:44;;;;;;;;;;;;;;;28.25;33.94;101389.88;5079952;28;1910;-37
2023/10/02 10:28:14;;;;;;;;;;;;;;;28.15;34.28;101389.22;5081579;28;1370;-38
2023/10/02 10:30:42;;;;;;;;;;;;;;;28.48;33.61;101400.81;5119555;27;1258;-36
2023/10/02 10:35:51;;;;;;;;;;;;;;;28.46;33.70;101402.84;5084955;28;1808;-38
2023/10/02 10:38:26;;;;;;;;;;;;;;;28.46;33.61;101392.00;5085669;28;1090;-39
2023/10/02 10:40:55;;;;;;;;;;;;;;;28.59;33.29;101388.72;5065627;28;1073;-37
2023/10/02 10:43:26;;;;;;;;;;;;;;;28.81;32.95;101386.22;5064086;28;1538;-37
2023/10/02 10:45:55;;;;;;;;;;;;;;;28.86;32.61;101385.72;5078877;28;1905;-36
2023/10/02 10:48:24;;;;;;;;;;;;;;;28.95;31.84;101364.81;5076822;28;1058;-38
2023/10/02 10:51:06;;;;;;;;;;;;;;;29.02;32.26;101362.25;5076165;28;1079;-36
2023/10/02 10:53:32;;;;;;;;;;;;;;;28.93;32.29;101362.28;5079006;28;1289;-38
2023/10/02 10:56:05;;;;;;;;;;;;;;;29.05;31.80;101372.72;5076778;28;1107;-35
2023/10/02 10:58:33;;;;;;;;;;;;;;;28.80;30.31;101364.75;5077420;28;1205;-36
2023/10/02 11:01:13;;;;;;;;;;;;;;;28.83;29.35;101359.81;5077476;28;1139;-36
2023/10/02 11:03:38;;;;;;;;;;;;;;;28.75;28.61;101340.94;5066471;28;1111;-37
2023/10/02 11:06:04;;;;;;;;;;;;;;;28.71;28.02;101356.69;5077203;28;2276;-33
2023/10/02 11:08:30;;;;;;;;;;;;;;;28.88;28.86;101370.09;5077084;28;896;-43
2023/10/02 11:11:09;;;;;;;;;;;;;;;28.90;30.82;101349.13;5076954;28;1190;-44
2023/10/02 11:13:50;;;;;;;;;;;;;;;29.29;29.96;101362.72;5076622;28;967;-41
2023/10/02 11:16:22;;;;;;;;;;;;;;;29.54;27.70;101357.91;5077063;28;1166;-42
2023/10/02 11:22:16;;;;;;;;;;;;;;;29.71;26.75;101352.34;5076973;28;1007;-42
2023/10/02 11:24:48;;;;;;;;;;;;;;;29.75;26.05;101355.50;5076029;28;1906;-42
2023/10/02 11:27:17;;;;;;;;;;;;;;;29.49;26.44;101382.03;5076864;28;1130;-43
2023/10/02 11:29:43;;;;;;;;;;;;;;;29.73;27.09;101361.13;5076910;28;1020;-40
2023/10/02 11:32:45;;;;;;;;;;;;;;;29.71;26.31;101365.91;5076488;28;914;-43
2023/10/02 11:35:05;;;;;;;;;;;;;;;29.66;25.37;101350.19;5074133;28;1398;-43
2023/10/02 11:37:31;;;;;;;;;;;;;;;29.49;27.27;101360.34;5075646;28;1126;-42
2023/10/02 11:39:57;;;;;;;;;;;;;;;29.38;28.32;101355.38;5078743;28;1140;-42
2023/10/02 11:42:23;;;;;;;;;;;;;;;29.38;28.55;101345.34;5085192;28;1058;-42
2023/10/02 11:44:48;;;;;;;;;;;;;;;29.38;29.01;101352.66;5079854;28;1914;-43
2023/10/02 11:47:14;;;;;;;;;;;;;;;29.57;28.86;101346.69;5062099;28;1257;-43
2023/10/02 11:49:40;;;;;;;;;;;;;;;29.80;28.55;101348.50;5062166;28;1040;-42
2023/10/02 11:52:05;;;;;;;;;;;;;;;29.95;27.97;101344.94;5075364;28;1107;-40
2023/10/02 11:54:39;;;;;;;;;;;;;;;30.03;28.38;101344.84;5074415;28;1233;-42
2023/10/02 11:57:12;;;;;;;;;;;;;;;29.72;28.66;101335.06;5075855;28;832;-42
2023/10/02 11:59:38;;;;;;;;;;;;;;;29.56;29.44;101345.00;5075658;28;1015;-42
2023/10/02 12:02:04;;;;;;;;;;;;;;;29.68;29.21;101350.84;5063845;28;1119;-43
2023/10/02 12:04:30;;;;;;;;;;;;;;;29.55;30.01;101358.75;5068601;28;1918;-43
2023/10/02 12:06:56;;;;;;;;;;;;;;;29.62;29.53;101348.03;5069398;28;1931;-41
2023/10/02 12:09:23;;;;;;;;;;;;;;;29.63;29.85;101347.03;5066580;28;1027;-42
2023/10/02 12:11:48;;;;;;;;;;;;;;;29.69;29.65;101347.13;5075756;28;1075;-42
2023/10/02 12:14:14;;;;;;;;;;;;;;;29.72;29.60;101345.91;5076037;28;1134;-42
2023/10/02 12:16:40;;;;;;;;;;;;;;;29.77;29.86;101356.19;5073729;28;1076;-42
2023/10/02 12:19:08;;;;;;;;;;;;;;;29.54;30.06;101351.66;5074214;28;1281;-42
2023/10/02 12:21:34;;;;;;;;;;;;;;;29.49;30.24;101357.63;5079463;28;1031;-41
2023/10/02 12:24:00;;;;;;;;;;;;;;;29.46;30.33;101364.25;5084464;28;1010;-42
2023/10/02 12:26:27;;;;;;;;;;;;;;;29.32;30.11;101349.66;5082255;28;1909;-42
2023/10/02 12:28:52;;;;;;;;;;;;;;;29.28;30.55;101347.50;5095430;28;986;-41
2023/10/02 12:31:19;;;;;;;;;;;;;;;29.39;30.41;101355.19;5093797;28;1041;-41
2023/10/02 12:33:45;;;;;;;;;;;;;;;29.36;30.39;101360.97;5086821;28;1107;-42
2023/10/02 12:36:17;;;;;;;;;;;;;;;29.36;30.27;101360.97;5075175;28;1819;-41
2023/10/02 12:38:43;;;;;;;;;;;;;;;29.53;30.36;101355.41;5042957;28;1273;-42
2023/10/02 12:41:12;;;;;;;;;;;;;;;29.67;29.86;101345.59;5071271;28;1090;-40
2023/10/02 12:43:38;;;;;;;;;;;;;;;29.57;30.00;101346.69;5075394;28;1171;-40
2023/10/02 12:46:06;;;;;;;;;;;;;;;29.53;30.18;101348.09;5072242;28;1971;-42
2023/10/02 12:48:33;;;;;;;;;;;;;;;29.60;30.15;101339.22;5080881;28;994;-42
2023/10/02 12:51:05;;;;;;;;;;;;;;;29.62;30.03;101334.47;5075485;28;1154;-37
2023/10/02 12:53:31;;;;;;;;;;;;;;;29.17;28.11;101341.50;5072663;28;1314;-37
2023/10/02 12:55:58;;;;;;;;;;;;;;;28.92;27.82;101349.78;5074942;28;1059;-40
2023/10/02 12:58:23;;;;;;;;;;;;;;;28.60;24.44;101343.56;5056178;28;1035;-39
2023/10/02 13:00:50;;;;;;;;;;;;;;;28.53;24.59;101334.50;5074091;28;995;-39
2023/10/02 13:03:16;;;;;;;;;;;;;;;28.29;26.14;101337.13;5079410;28;1106;-37
2023/10/02 13:05:43;;;;;;;;;;;;;;;28.09;25.23;101328.59;5079685;28;1955;-41
2023/10/02 13:08:09;;;;;;;;;;;;;;;28.10;24.75;101338.38;5078222;28;1030;-38
2023/10/02 13:10:35;;;;;;;;;;;;;;;29.03;26.96;101342.28;5077368;28;1027;-40
2023/10/02 13:13:00;;;;;;;;;;;;;;;29.75;25.34;101341.94;5063988;28;1122;-39
2023/10/02 13:15:27;;;;;;;;;;;;;;;29.42;24.41;101340.41;5071500;28;1229;-39
2023/10/02 13:17:53;;;;;;;;;;;;;;;28.92;25.63;101346.22;5098847;28;1248;-42
2023/10/02 13:20:19;;;;;;;;;;;;;;;28.83;25.31;101338.16;5092220;28;1339;-39
2023/10/02 13:22:45;;;;;;;;;;;;;;;28.52;27.40;101343.59;5073742;28;1316;-39
2023/10/02 13:25:13;;;;;;;;;;;;;;;29.26;25.66;101349.53;5083267;28;1902;-39
2023/10/02 13:27:42;;;;;;;;;;;;;;;29.96;24.77;101343.09;5063382;28;1394;-40
2023/10/02 13:30:09;;;;;;;;;;;;;;;29.17;26.18;101343.34;5087955;28;1074;-38
2023/10/02 13:32:35;;;;;;;;;;;;;;;28.75;27.22;101343.63;5082075;28;1336;-37
2023/10/02 13:35:05;;;;;;;;;;;;;;;28.28;27.70;101340.00;5078549;28;1107;-38
2023/10/02 13:37:34;;;;;;;;;;;;;;;28.56;28.63;101339.53;5086165;28;966;-39
2023/10/02 13:39:59;;;;;;;;;;;;;;;28.51;26.63;101339.22;5078632;28;1071;-39
2023/10/02 13:42:25;;;;;;;;;;;;;;;28.27;25.81;101346.41;5076844;28;1375;-37
2023/10/02 13:44:50;;;;;;;;;;;;;;;28.01;25.13;101342.97;5081984;28;1955;-39